• Join FlightAware (Why Join?)
  • Login
  • US Flag 
03:23PM EDT


 

Airport Tracker/Info


-or-


 

Live Flight TrackerFlight Track Log ✈ N894KS ✈ 09-Feb-2014 ✈ KHND - KBFL

Flight Track Log - Related Links

Times and Time Zones

All times are in EST time to prevent confusion due to time zone crossing. See the N894KS flight status page for this flight to view local times or setup timezone preferences in your user account.

Time Position Orientation Groundspeed Altitude Reporting Facility
EST Latitude Longitude Course Direction KTS MPH feet Rate Location/Type
02:43PM 35.9892 -115.1358 148° Southeast 170 196 3,500  Level Los Angeles Center
02:45PM 35.9303 -115.0906 148° Southeast 250 288 8,300 2,700 Climbing Los Angeles Center
02:45PM 35.8706 -115.0978 186° South 277 319 10,400 2,640 Climbing Los Angeles Center
02:46PM 35.8531 -115.0975 179° South 284 327 11,100 2,220 Climbing Los Angeles Center
02:47PM 35.7633 -115.1158 189° South 318 366 13,400 2,640 Climbing Los Angeles Center
02:48PM 35.7203 -115.2014 238° Southwest 287 330 16,600 2,280 Climbing Los Angeles Center
02:49PM 35.6842 -115.2806 241° Southwest 291 335 18,200 2,100 Climbing Los Angeles Center
02:50PM 35.6122 -115.3786 228° Southwest 318 366 21,000 2,220 Climbing Los Angeles Center
02:51PM 35.5497 -115.4636 228° Southwest 331 381 22,800 1,740 Climbing Los Angeles Center
02:52PM 35.4850 -115.5489 227° Southwest 338 389 24,600 1,500 Climbing Los Angeles Center
02:53PM 35.4278 -115.6278 228° Southwest 342 394 26,000 660 Climbing Los Angeles Center
02:54PM 35.3553 -115.7458 233° Southwest 361 415 26,000  Level Los Angeles Center
02:56PM 35.3144 -116.0094 259° West 360 414 26,000  Level Los Angeles Center
03:00PM 35.2553 -116.5086 277° West 369 425 26,000  Level Los Angeles Center
03:01PM 35.1553 -116.5653 205° Southwest 395 455 26,000  Level Los Angeles Center
03:02PM 35.1028 -116.6742 240° Southwest 377 434 26,000  Level Los Angeles Center
03:04PM 35.0267 -116.9061 280° West 370 426 26,000  Level Los Angeles Center
03:05PM 35.2487 -116.8505 266° West  Level FlightAware Approximate
03:05PM 34.9800 -117.0442 248° West 368 423 26,000  Level Los Angeles Center
03:06PM 35.2582 -116.9529 277° West  Level Estimated
03:08PM 34.9008 -117.2781 248° West 370 426 24,100  Level Los Angeles Center
03:09PM 34.8611 -117.3931 247° West 366 421 24,000 -60 Descending Los Angeles Center
03:10PM 34.8136 -117.5317 247° West 366 421 24,000  Level Los Angeles Center
03:11PM 34.7750 -117.6478 248° West 366 421 24,000 -480 Level Los Angeles Center
03:12PM 34.7358 -117.7617 247° West 363 418 23,100 -1,020 Descending Los Angeles Center
03:13PM 34.6881 -117.8986 247° West 366 421 21,900 -1,080 Descending Los Angeles Center
03:14PM 34.6494 -118.0108 247° West 361 415 20,900 -1,020 Descending Los Angeles Center
03:15PM 34.6731 -118.1200 285° West 347 399 19,900 -960 Descending Los Angeles Center
03:16PM 34.7400 -118.2064 313° West 349 402 18,900 -1,020 Descending Los Angeles Center
03:17PM 34.8075 -118.2942 313° West 352 405 17,800 -1,140 Descending Los Angeles Center
03:18PM 34.8719 -118.3783 313° West 342 394 16,600 -1,320 Descending Los Angeles Center
03:19PM 34.9344 -118.4597 313° West 331 381 15,100 -1,680 Descending Los Angeles Center
03:21PM 35.0725 -118.6328 316° Northwest 307 353 11,500 -1,560 Descending Los Angeles Center
03:24PM 35.2289 -118.8078 321° Northwest 245 282 7,300 -1,380 Descending Los Angeles Center
03:27PM 35.3657 -118.9744 321° Northwest  Level Estimated
03:30PM 35.4333 -119.0500 321° Northwest  Level FlightAware Approximate
03:34PM 35.4333 -119.0500 321° Northwest  Level FlightAware Approximate
03:35PM 35.4339 -119.0577 321° Northwest  Level Estimated